Time;durP1;ratioP1;P1;durP2;ratioP2;P2;SDS_P1;SDS_P2;PMS_P1;PMS_P2;Temp;Humidity;BMP_temperature;BMP_pressure;BME280_temperature;BME280_humidity;BME280_pressure;Samples;Min_cycle;Max_cycle;Signal;HPM_P1;HPM_P2
2022/10/01 00:00:25;;;;;;;8.57;7.05;;;11.10;99.90;;;;;;5060462;28;20787;-68
2022/10/01 00:02:53;;;;;;;6.43;5.85;;;11.20;99.90;;;;;;5077246;28;20048;-68
2022/10/01 00:05:19;;;;;;;7.53;6.80;;;11.20;99.90;;;;;;5076879;28;20054;-68
2022/10/01 00:07:45;;;;;;;7.07;6.07;;;10.90;99.90;;;;;;5077029;28;20494;-68
2022/10/01 00:10:12;;;;;;;8.35;7.63;;;10.80;99.90;;;;;;5077292;28;20039;-68
2022/10/01 00:12:45;;;;;;;9.93;8.55;;;11.00;99.90;;;;;;5076846;28;20040;-67
2022/10/01 00:15:13;;;;;;;8.52;7.82;;;11.00;99.90;;;;;;5076416;28;20043;-67
2022/10/01 00:17:39;;;;;;;8.57;7.25;;;10.70;99.90;;;;;;5076731;28;20411;-67
2022/10/01 00:20:06;;;;;;;8.60;7.80;;;10.90;99.90;;;;;;5076944;28;20489;-67
2022/10/01 00:22:35;;;;;;;10.27;7.60;;;10.70;99.90;;;;;;5042988;28;20039;-68
2022/10/01 00:25:01;;;;;;;9.50;8.60;;;11.00;99.90;;;;;;5092116;28;20119;-68
2022/10/01 00:27:28;;;;;;;8.40;6.60;;;10.70;99.90;;;;;;5059780;28;20040;-67
2022/10/01 00:29:54;;;;;;;10.50;9.45;;;10.70;99.90;;;;;;5059319;28;20593;-67
2022/10/01 00:32:20;;;;;;;9.85;9.00;;;10.80;99.90;;;;;;5059567;28;20046;-67
2022/10/01 00:34:46;;;;;;;10.88;9.75;;;10.70;99.90;;;;;;5058859;28;20036;-68
2022/10/01 00:37:12;;;;;;;12.10;11.00;;;10.70;99.90;;;;;;5075969;28;20056;-67
2022/10/01 00:39:37;;;;;;;11.15;10.15;;;10.90;99.90;;;;;;5048289;28;20149;-66
2022/10/01 00:42:16;;;;;;;11.40;10.23;;;10.90;99.90;;;;;;5059861;28;20103;-66
2022/10/01 00:44:42;;;;;;;12.68;11.38;;;10.80;99.90;;;;;;5075672;28;20175;-67
2022/10/01 00:47:36;;;;;;;12.73;11.43;;;10.90;99.90;;;;;;5076452;28;20068;-67
2022/10/01 00:50:16;;;;;;;12.50;11.35;;;10.70;99.90;;;;;;5070085;28;20097;-66
2022/10/01 00:52:46;;;;;;;14.25;12.85;;;10.80;99.90;;;;;;5076411;28;20028;-67
2022/10/01 00:55:25;;;;;;;14.45;12.95;;;10.50;99.90;;;;;;5076165;28;20046;-65
2022/10/01 00:57:52;;;;;;;16.85;15.05;;;10.50;99.90;;;;;;5077517;28;20044;-66
2022/10/01 01:00:19;;;;;;;14.90;12.77;;;10.70;99.90;;;;;;5063345;28;20079;-67
2022/10/01 01:02:44;;;;;;;15.65;14.00;;;10.60;99.90;;;;;;5080361;28;20039;-66
2022/10/01 01:05:12;;;;;;;15.38;13.32;;;10.60;99.90;;;;;;5079850;28;20036;-67
2022/10/01 01:07:39;;;;;;;16.83;15.15;;;10.80;99.90;;;;;;5064047;28;20407;-67
2022/10/01 01:10:06;;;;;;;14.43;13.18;;;10.80;99.90;;;;;;5079944;28;20604;-66
2022/10/01 01:12:35;;;;;;;14.27;12.98;;;10.60;99.90;;;;;;5063279;28;20086;-66
2022/10/01 01:15:06;;;;;;;13.27;11.90;;;10.80;99.90;;;;;;5077704;28;20047;-67
2022/10/01 01:18:04;;;;;;;16.05;14.50;;;10.80;99.90;;;;;;5079387;28;20039;-66
2022/10/01 01:20:49;;;;;;;16.13;14.60;;;10.40;99.90;;;;;;5065630;28;20409;-67
2022/10/01 01:23:15;;;;;;;16.80;15.18;;;10.80;99.90;;;;;;5079697;28;20043;-66
2022/10/01 01:26:28;;;;;;;18.58;16.80;;;10.60;99.90;;;;;;5079601;28;20040;-69
2022/10/01 01:29:01;;;;;;;16.05;14.55;;;10.50;99.90;;;;;;5075637;28;20131;-67
2022/10/01 01:31:37;;;;;;;17.23;15.68;;;10.80;99.90;;;;;;5080046;28;20436;-67
2022/10/01 01:34:11;;;;;;;18.63;16.70;;;10.60;99.90;;;;;;5080609;28;20040;-67
2022/10/01 01:36:39;;;;;;;;;;;10.40;99.90;;;;;;5062956;28;20454;-67
2022/10/01 01:39:08;;;;;;;20.15;18.25;;;10.40;99.90;;;;;;5048834;28;19919;-68
2022/10/01 01:41:39;;;;;;;23.90;21.35;;;10.70;99.90;;;;;;5079481;28;20043;-69
2022/10/01 01:44:11;;;;;;;21.60;19.55;;;10.60;99.90;;;;;;5062214;28;20115;-67
2022/10/01 01:46:42;;;;;;;21.80;19.60;;;10.60;99.90;;;;;;5079074;28;20158;-68
2022/10/01 01:49:08;;;;;;;25.33;22.83;;;10.60;99.90;;;;;;5079523;28;20044;-71
2022/10/01 01:52:00;;;;;;;24.88;22.35;;;10.70;99.90;;;;;;5079998;28;20123;-67
2022/10/01 01:54:29;;;;;;;24.67;22.38;;;10.30;99.90;;;;;;5073180;28;20047;-67
2022/10/01 01:56:57;;;;;;;23.70;21.38;;;10.60;99.90;;;;;;5061593;28;20205;-67
2022/10/01 01:59:24;;;;;;;21.13;19.13;;;10.40;99.90;;;;;;5079312;28;20082;-67
2022/10/01 02:01:50;;;;;;;25.95;22.67;;;10.50;99.90;;;;;;5078685;28;20040;-67
2022/10/01 02:04:23;;;;;;;24.15;21.67;;;10.70;99.90;;;;;;5079642;28;20051;-67
2022/10/01 02:07:17;;;;;;;21.45;19.38;;;10.30;99.90;;;;;;5079448;28;20050;-66
2022/10/01 02:09:42;;;;;;;;;;;10.60;99.90;;;;;;5078836;28;20035;-68
2022/10/01 02:12:30;;;;;;;18.27;16.33;;;10.60;99.90;;;;;;5079241;28;19947;-67
2022/10/01 02:15:05;;;;;;;17.05;15.38;;;10.60;99.90;;;;;;5079026;28;20055;-67
2022/10/01 02:18:11;;;;;;;15.60;14.07;;;10.50;99.90;;;;;;5061907;28;20207;-68
2022/10/01 02:21:10;;;;;;;22.08;17.00;;;10.30;99.90;;;;;;5060927;28;20047;-67
2022/10/01 02:23:42;;;;;;;15.68;14.07;;;10.50;99.90;;;;;;5042869;28;20122;-68
2022/10/01 02:26:13;;;;;;;19.15;17.17;;;10.20;99.90;;;;;;5078558;28;20055;-68
2022/10/01 02:28:41;;;;;;;16.50;14.90;;;10.30;99.90;;;;;;5079028;28;20092;-68
2022/10/01 02:31:09;;;;;;;20.75;18.73;;;10.60;99.90;;;;;;5061550;28;20032;-67
2022/10/01 02:33:36;;;;;;;17.90;15.27;;;10.50;99.90;;;;;;5078185;28;20427;-67
2022/10/01 02:36:04;;;;;;;17.58;15.63;;;10.20;99.90;;;;;;5079017;28;20044;-67
2022/10/01 02:38:32;;;;;;;21.42;19.13;;;10.20;99.90;;;;;;5078718;28;20052;-67
2022/10/01 02:41:03;;;;;;;22.00;19.58;;;10.20;99.90;;;;;;5061439;28;20047;-68
2022/10/01 02:43:43;;;;;;;19.50;17.55;;;10.60;99.90;;;;;;5077864;28;20075;-67
2022/10/01 02:46:27;;;;;;;22.30;20.05;;;10.50;99.90;;;;;;5078460;28;20050;-68
2022/10/01 02:48:53;;;;;;;23.88;20.75;;;10.30;99.90;;;;;;5077894;28;20480;-69
2022/10/01 02:52:00;;;;;;;22.42;19.70;;;10.50;99.90;;;;;;5078154;28;20438;-68
2022/10/01 02:54:32;;;;;;;25.15;22.65;;;10.60;99.90;;;;;;4980729;28;20077;-67
2022/10/01 02:59:43;;;;;;;22.75;19.58;;;10.20;99.90;;;;;;5064395;28;20438;-66
2022/10/01 03:02:09;;;;;;;26.73;23.98;;;10.40;99.90;;;;;;5078494;28;20035;-67
2022/10/01 03:04:34;;;;;;;26.90;24.00;;;10.20;99.90;;;;;;5078127;28;20044;-67
2022/10/01 03:07:02;;;;;;;27.08;23.48;;;10.60;99.90;;;;;;5059986;28;20040;-67
2022/10/01 03:09:30;;;;;;;26.50;23.75;;;10.30;99.90;;;;;;5077801;28;20546;-66
2022/10/01 03:11:56;;;;;;;26.27;23.65;;;10.50;99.90;;;;;;5077717;28;20051;-66
2022/10/01 03:14:23;;;;;;;26.83;24.02;;;10.30;99.90;;;;;;5078349;28;20494;-68
2022/10/01 03:16:50;;;;;;;20.67;18.67;;;10.30;99.90;;;;;;5078237;28;20143;-66
2022/10/01 03:19:15;;;;;;;24.98;22.00;;;10.50;99.90;;;;;;5077652;28;20043;-67
2022/10/01 03:21:41;;;;;;;20.35;18.15;;;10.40;99.90;;;;;;5059245;28;20036;-65
2022/10/01 03:24:07;;;;;;;24.23;21.58;;;10.20;99.90;;;;;;5060943;28;20035;-67
2022/10/01 03:26:33;;;;;;;27.70;24.15;;;10.10;99.90;;;;;;5077117;28;20107;-67
2022/10/01 03:28:59;;;;;;;27.67;24.73;;;10.30;99.90;;;;;;5077293;28;20482;-67
2022/10/01 03:31:25;;;;;;;25.67;23.08;;;10.40;99.90;;;;;;5060761;28;20059;-67
2022/10/01 03:33:50;;;;;;;25.35;22.63;;;10.10;99.90;;;;;;5077985;28;20039;-67
2022/10/01 03:36:16;;;;;;;28.55;25.45;;;10.40;99.90;;;;;;5077508;28;20039;-66
2022/10/01 03:38:41;;;;;;;22.45;20.13;;;10.30;99.90;;;;;;5060197;28;20441;-67
2022/10/01 03:41:07;;;;;;;21.98;19.73;;;10.50;99.90;;;;;;5059921;28;20058;-68
2022/10/01 03:43:33;;;;;;;28.95;23.00;;;10.60;99.90;;;;;;5060712;28;20044;-66
2022/10/01 03:46:00;;;;;;;23.08;20.77;;;10.30;99.90;;;;;;5060511;28;20533;-67
2022/10/01 03:48:26;;;;;;;21.05;18.83;;;10.50;99.90;;;;;;5076904;28;20071;-66
2022/10/01 03:50:58;;;;;;;20.42;18.45;;;10.30;99.90;;;;;;5077558;28;20040;-67
2022/10/01 03:53:26;;;;;;;20.40;18.38;;;10.70;99.90;;;;;;5076978;28;20121;-66
2022/10/01 03:55:52;;;;;;;16.52;14.93;;;10.70;99.90;;;;;;5060377;28;20048;-66
2022/10/01 03:58:18;;;;;;;14.38;13.00;;;10.80;99.90;;;;;;5077177;28;20191;-65
2022/10/01 04:00:45;;;;;;;14.30;13.00;;;10.30;99.90;;;;;;5059876;28;20039;-65
2022/10/01 04:03:12;;;;;;;13.10;11.73;;;10.90;99.90;;;;;;5076581;28;20043;-65
2022/10/01 04:05:38;;;;;;;12.70;11.57;;;10.70;99.90;;;;;;5031109;28;20062;-65
2022/10/01 04:08:04;;;;;;;10.32;9.43;;;10.40;99.90;;;;;;5077116;28;20051;-66
2022/10/01 04:10:30;;;;;;;10.00;9.10;;;10.70;99.90;;;;;;5076542;28;20263;-64
2022/10/01 04:12:55;;;;;;;7.28;6.57;;;11.00;99.90;;;;;;5060769;28;20054;-66
2022/10/01 04:15:22;;;;;;;9.07;7.43;;;10.60;99.90;;;;;;5060174;28;20421;-65
2022/10/01 04:17:48;;;;;;;6.88;6.28;;;11.00;99.90;;;;;;5076950;28;20062;-65
2022/10/01 04:20:14;;;;;;;6.07;5.57;;;10.40;99.90;;;;;;5076914;28;20460;-65
2022/10/01 04:22:40;;;;;;;6.45;5.80;;;10.50;99.90;;;;;;5060615;28;20134;-64
2022/10/01 04:25:10;;;;;;;6.63;6.03;;;10.50;99.90;;;;;;5076663;28;20119;-65
2022/10/01 04:27:40;;;;;;;6.32;5.60;;;11.00;99.90;;;;;;5076536;28;20035;-66
2022/10/01 04:30:07;;;;;;;5.00;4.50;;;11.10;99.90;;;;;;5059539;28;20032;-65
2022/10/01 04:32:33;;;;;;;4.85;4.45;;;10.60;99.90;;;;;;5076799;28;20052;-65
2022/10/01 04:34:59;;;;;;;4.70;4.25;;;10.80;99.90;;;;;;5077420;28;20052;-65
2022/10/01 04:37:26;;;;;;;5.22;4.72;;;11.00;99.90;;;;;;5059997;28;20427;-66
2022/10/01 04:39:52;;;;;;;4.25;3.92;;;11.00;99.90;;;;;;5076342;28;20143;-66
2022/10/01 04:42:18;;;;;;;5.13;4.63;;;10.70;99.90;;;;;;5076065;28;20044;-65
2022/10/01 04:44:44;;;;;;;4.40;3.83;;;10.80;99.90;;;;;;5043707;28;20211;-64
2022/10/01 04:47:09;;;;;;;3.50;3.22;;;10.90;99.90;;;;;;5059828;28;21314;-65
2022/10/01 04:49:35;;;;;;;4.63;4.22;;;11.10;99.90;;;;;;5076865;28;20081;-66
2022/10/01 04:52:02;;;;;;;2.90;2.70;;;11.10;99.90;;;;;;5076151;28;20044;-65
2022/10/01 04:54:28;;;;;;;3.97;3.38;;;10.60;99.90;;;;;;5077084;28;20421;-65
2022/10/01 04:56:54;;;;;;;4.07;3.78;;;10.90;99.90;;;;;;5076503;28;20036;-66
2022/10/01 04:59:19;;;;;;;3.50;3.20;;;10.70;99.90;;;;;;5076292;28;20047;-66
2022/10/01 05:01:45;;;;;;;3.58;3.28;;;10.70;99.90;;;;;;5092876;28;20435;-66
2022/10/01 05:04:11;;;;;;;2.90;2.70;;;10.80;99.90;;;;;;5059482;28;20035;-65
2022/10/01 05:06:37;;;;;;;3.47;2.97;;;10.90;99.90;;;;;;5076204;28;20047;-64
2022/10/01 05:09:03;;;;;;;2.90;2.70;;;11.10;99.90;;;;;;5076392;28;20295;-65
2022/10/01 05:11:29;;;;;;;2.70;2.50;;;10.60;99.90;;;;;;5059270;28;20482;-65
2022/10/01 05:13:55;;;;;;;4.40;2.40;;;11.10;99.90;;;;;;5092984;28;20040;-65
2022/10/01 05:16:21;;;;;;;3.10;2.80;;;11.30;99.90;;;;;;5092904;28;20375;-65
2022/10/01 05:18:46;;;;;;;3.00;2.80;;;10.80;99.90;;;;;;5076118;28;20478;-65
2022/10/01 05:21:14;;;;;;;3.95;3.65;;;11.20;99.90;;;;;;5075961;28;20493;-65
2022/10/01 05:23:40;;;;;;;3.20;2.90;;;11.00;99.90;;;;;;5058921;28;20040;-66
2022/10/01 05:26:07;;;;;;;3.65;3.33;;;10.90;99.90;;;;;;5076356;28;20044;-65
2022/10/01 05:28:34;;;;;;;2.70;2.50;;;11.10;99.90;;;;;;5059666;28;20485;-65
2022/10/01 05:31:03;;;;;;;3.75;3.53;;;11.00;99.90;;;;;;5075365;28;20528;-68
2022/10/01 05:33:30;;;;;;;3.20;2.90;;;11.40;99.90;;;;;;5075252;28;20398;-65
2022/10/01 05:35:56;;;;;;;4.97;4.57;;;11.40;99.90;;;;;;5076180;28;20032;-65
2022/10/01 05:38:23;;;;;;;3.72;3.42;;;11.40;99.90;;;;;;5058853;28;20503;-65
2022/10/01 05:40:49;;;;;;;4.97;3.78;;;10.90;99.90;;;;;;5075988;28;20052;-65
2022/10/01 05:43:15;;;;;;;3.80;3.50;;;10.90;99.90;;;;;;5075730;28;20180;-65
2022/10/01 05:45:41;;;;;;;3.55;3.25;;;11.50;99.90;;;;;;5062012;28;20051;-64
2022/10/01 05:48:08;;;;;;;4.07;3.13;;;11.60;99.90;;;;;;5079009;28;20060;-64
2022/10/01 05:50:42;;;;;;;4.60;4.20;;;11.50;99.90;;;;;;5079543;28;20040;-65
2022/10/01 05:53:10;;;;;;;5.03;4.55;;;11.40;99.90;;;;;;5079506;28;20039;-65
2022/10/01 05:55:36;;;;;;;5.43;4.93;;;11.50;99.90;;;;;;5079768;28;20219;-64
2022/10/01 05:58:13;;;;;;;5.07;4.68;;;11.70;99.90;;;;;;5079371;28;20472;-66
2022/10/01 06:00:40;;;;;;;4.75;4.45;;;11.10;99.90;;;;;;5079086;28;20224;-65
2022/10/01 06:03:07;;;;;;;4.35;4.05;;;11.50;99.90;;;;;;5078828;28;20127;-64
2022/10/01 06:05:34;;;;;;;5.70;4.60;;;11.50;99.90;;;;;;5079664;28;20044;-65
2022/10/01 06:08:03;;;;;;;5.80;3.92;;;11.20;99.90;;;;;;5062294;28;20077;-65
2022/10/01 06:10:29;;;;;;;5.57;4.32;;;11.50;99.90;;;;;;5079443;28;20036;-65
2022/10/01 06:13:03;;;;;;;4.95;4.32;;;11.70;99.90;;;;;;5061576;28;20127;-64
2022/10/01 06:15:33;;;;;;;4.82;4.43;;;11.20;99.90;;;;;;5079431;28;20211;-64
2022/10/01 06:18:01;;;;;;;6.22;5.70;;;11.70;99.90;;;;;;5061852;28;20359;-66
2022/10/01 06:20:27;;;;;;;5.05;3.90;;;11.70;99.90;;;;;;5061925;28;20055;-65
2022/10/01 06:22:55;;;;;;;5.45;5.05;;;11.80;99.90;;;;;;5061841;28;20056;-64
2022/10/01 06:25:21;;;;;;;5.88;5.38;;;11.20;99.90;;;;;;5078915;28;20058;-64
2022/10/01 06:27:55;;;;;;;7.60;6.90;;;11.60;99.90;;;;;;5078655;28;20032;-64
2022/10/01 06:30:21;;;;;;;7.32;6.45;;;11.10;99.90;;;;;;5061449;28;20414;-65
2022/10/01 06:32:47;;;;;;;7.40;6.68;;;11.40;99.90;;;;;;5078630;28;20524;-64
2022/10/01 06:35:13;;;;;;;8.82;5.88;;;11.70;99.90;;;;;;5078229;28;20123;-65
2022/10/01 06:37:39;;;;;;;6.82;5.93;;;11.80;99.90;;;;;;5044770;28;20056;-65
2022/10/01 06:40:06;;;;;;;9.68;6.80;;;11.50;99.90;;;;;;5065918;28;20130;-64
2022/10/01 06:42:32;;;;;;;10.05;7.00;;;11.80;99.90;;;;;;5065208;28;20772;-65
2022/10/01 06:44:57;;;;;;;8.43;6.88;;;12.00;99.90;;;;;;5060348;28;20048;-64
2022/10/01 06:47:23;;;;;;;10.65;6.93;;;11.70;99.90;;;;;;5044237;28;20366;-65
2022/10/01 06:49:49;;;;;;;9.82;6.28;;;11.40;99.90;;;;;;5077380;28;20028;-65
2022/10/01 06:55:00;;;;;;;6.25;5.60;;;12.10;99.90;;;;;;5064640;28;20579;-64
2022/10/01 06:57:26;;;;;;;6.78;5.78;;;11.90;99.90;;;;;;5080060;28;20431;-64
2022/10/01 06:59:52;;;;;;;8.20;5.70;;;11.80;99.90;;;;;;5080238;28;20054;-64
2022/10/01 07:02:22;;;;;;;7.00;5.45;;;12.30;99.90;;;;;;5084264;28;20071;-66
2022/10/01 07:04:47;;;;;;;11.25;8.93;;;11.80;99.90;;;;;;5063359;28;20046;-65
2022/10/01 07:07:13;;;;;;;9.95;5.90;;;12.10;99.90;;;;;;5063080;28;20044;-64
2022/10/01 07:09:39;;;;;;;10.40;6.47;;;11.90;99.90;;;;;;5046901;28;20107;-66
2022/10/01 07:12:05;;;;;;;9.60;6.50;;;12.00;99.90;;;;;;5044851;28;20508;-64
2022/10/01 07:14:30;;;;;;;8.90;6.55;;;12.60;99.90;;;;;;5078919;28;20500;-65
2022/10/01 07:16:56;;;;;;;9.02;4.70;;;12.50;99.90;;;;;;5077418;28;20123;-66
2022/10/01 07:19:22;;;;;;;6.82;4.70;;;12.50;99.90;;;;;;5041502;28;20393;-65
2022/10/01 07:21:48;;;;;;;11.77;5.63;;;13.30;99.90;;;;;;5041700;28;20048;-65
2022/10/01 07:24:13;;;;;;;7.22;5.00;;;13.30;99.90;;;;;;5061839;28;20047;-65
2022/10/01 07:26:39;;;;;;;8.13;5.07;;;13.40;99.90;;;;;;5061147;28;20546;-65
2022/10/01 07:29:05;;;;;;;7.75;4.72;;;13.40;99.90;;;;;;5060094;28;20059;-65
2022/10/01 07:31:30;;;;;;;9.38;4.78;;;12.80;99.90;;;;;;5060253;28;20073;-65
2022/10/01 07:33:59;;;;;;;8.80;4.13;;;13.40;99.90;;;;;;5060173;28;20044;-66
2022/10/01 07:36:25;;;;;;;5.97;4.30;;;13.10;99.90;;;;;;5044160;28;20039;-65
2022/10/01 07:38:51;;;;;;;8.10;3.75;;;13.60;99.90;;;;;;5065599;28;20081;-65
2022/10/01 07:41:16;;;;;;;8.75;2.97;;;14.10;99.90;;;;;;5076629;28;20043;-65
2022/10/01 07:43:45;;;;;;;6.47;2.17;;;14.40;99.90;;;;;;5076256;28;20393;-66
2022/10/01 07:46:11;;;;;;;8.95;2.28;;;14.70;99.90;;;;;;5076735;28;20036;-66
2022/10/01 07:48:36;;;;;;;6.78;2.20;;;14.30;99.90;;;;;;5059364;28;20047;-66
2022/10/01 07:51:02;;;;;;;9.50;2.20;;;14.70;99.90;;;;;;5059404;28;20112;-66
2022/10/01 07:53:28;;;;;;;6.40;2.00;;;15.10;99.90;;;;;;5076516;28;20089;-66
2022/10/01 07:55:54;;;;;;;8.35;1.88;;;15.60;99.90;;;;;;5048773;28;20050;-66
2022/10/01 07:58:22;;;;;;;8.02;1.98;;;15.10;99.90;;;;;;5059245;28;20113;-65
2022/10/01 08:00:54;;;;;;;8.15;2.45;;;14.70;99.90;;;;;;5075617;28;20520;-65
2022/10/01 08:03:20;;;;;;;7.43;2.30;;;14.70;99.90;;;;;;5058103;28;20050;-65
2022/10/01 08:05:46;;;;;;;7.35;2.08;;;14.10;99.90;;;;;;5076974;28;20044;-66
2022/10/01 08:08:12;;;;;;;8.40;2.10;;;14.60;99.90;;;;;;5059366;28;20036;-65
2022/10/01 08:10:38;;;;;;;6.45;1.80;;;15.80;99.90;;;;;;5077374;28;20351;-65
2022/10/01 08:13:24;;;;;;;7.35;1.95;;;16.10;99.90;;;;;;5075822;28;20347;-65
2022/10/01 08:15:53;;;;;;;11.38;2.08;;;16.20;99.90;;;;;;5059500;28;20405;-65
2022/10/01 08:18:21;;;;;;;6.45;1.42;;;16.00;99.90;;;;;;5046772;28;20120;-65
2022/10/01 08:20:47;;;;;;;11.05;1.40;;;16.60;99.90;;;;;;5062048;28;20072;-65
2022/10/01 08:23:14;;;;;;;6.18;1.67;;;16.60;99.90;;;;;;5045113;28;20058;-66
2022/10/01 08:25:42;;;;;;;5.22;0.90;;;17.00;99.90;;;;;;5061790;28;20098;-65
2022/10/01 08:28:09;;;;;;;9.13;1.13;;;17.20;99.90;;;;;;5061922;28;20106;-66
2022/10/01 08:30:38;;;;;;;7.07;1.10;;;17.40;99.90;;;;;;5061736;28;20390;-65
2022/10/01 08:33:04;;;;;;;8.75;1.17;;;17.50;99.90;;;;;;5078353;28;20577;-66
2022/10/01 08:35:30;;;;;;;9.27;1.40;;;17.40;99.90;;;;;;5078730;28;20379;-66
2022/10/01 08:38:03;;;;;;;6.68;0.90;;;17.70;99.90;;;;;;5078379;28;20066;-67
2022/10/01 08:40:31;;;;;;;12.82;1.70;;;17.50;99.90;;;;;;5061506;28;20051;-66
2022/10/01 08:43:05;;;;;;;6.63;1.23;;;17.30;99.90;;;;;;5062101;28;20112;-66
2022/10/01 08:45:51;;;;;;;9.82;1.00;;;17.80;99.90;;;;;;5078884;28;20054;-66
2022/10/01 08:48:36;;;;;;;8.30;0.85;;;18.60;99.90;;;;;;5078504;28;20040;-66
2022/10/01 08:51:14;;;;;;;6.80;0.88;;;18.70;99.90;;;;;;5061430;28;20143;-66
2022/10/01 08:53:44;;;;;;;9.32;1.27;;;18.50;99.90;;;;;;5078172;28;20481;-67
2022/10/01 08:56:28;;;;;;;12.50;1.30;;;18.60;99.90;;;;;;5078157;28;20082;-67
2022/10/01 08:59:01;;;;;;;10.20;1.15;;;18.50;99.90;;;;;;5061862;28;20035;-66
2022/10/01 09:01:28;;;;;;;;;;;18.40;99.90;;;;;;5078873;28;20052;-66
2022/10/01 09:03:54;;;;;;;8.32;1.02;;;18.30;99.90;;;;;;5078433;28;20006;-67
2022/10/01 09:06:25;;;;;;;11.50;1.00;;;18.30;99.90;;;;;;5061589;28;20040;-66
2022/10/01 09:08:54;;;;;;;9.23;1.27;;;18.60;99.90;;;;;;5061683;28;20040;-65
2022/10/01 09:12:00;;;;;;;9.05;1.05;;;19.00;99.90;;;;;;5078281;28;20486;-66
2022/10/01 09:14:44;;;;;;;9.10;1.20;;;18.80;99.90;;;;;;5039199;28;20143;-65
2022/10/01 09:17:29;;;;;;;9.10;1.10;;;18.90;99.90;;;;;;5045352;28;20036;-66
2022/10/01 09:20:04;;;;;;;8.50;0.80;;;19.40;99.90;;;;;;5081268;28;20127;-65
2022/10/01 09:22:33;;;;;;;12.90;1.20;;;19.20;99.90;;;;;;5082492;28;20047;-66
2022/10/01 09:25:20;;;;;;;12.15;1.38;;;18.50;99.90;;;;;;5082229;28;20791;-66
2022/10/01 09:27:46;;;;;;;7.78;1.02;;;17.70;99.90;;;;;;5048872;28;20093;-66
2022/10/01 09:30:20;;;;;;;10.70;1.05;;;17.30;99.90;;;;;;5081981;28;20044;-66
2022/10/01 09:33:01;;;;;;;12.35;1.10;;;16.80;99.90;;;;;;5082093;28;20046;-66
2022/10/01 09:35:27;;;;;;;10.40;0.95;;;16.30;99.90;;;;;;5082299;28;20043;-66
2022/10/01 09:38:21;;;;;;;8.45;1.25;;;16.50;99.90;;;;;;5081877;28;20064;-67
2022/10/01 09:40:53;;;;;;;13.75;1.63;;;16.20;99.90;;;;;;5081896;28;20040;-66
2022/10/01 09:43:21;;;;;;;8.68;0.93;;;16.20;99.90;;;;;;5081695;28;20040;-66
2022/10/01 09:45:50;;;;;;;10.40;1.05;;;15.80;99.90;;;;;;5081571;28;20050;-66
2022/10/01 09:48:40;;;;;;;7.88;0.65;;;16.20;99.90;;;;;;5065317;28;20047;-67
2022/10/01 09:51:15;;;;;;;9.20;0.80;;;17.10;99.90;;;;;;5081619;28;20155;-66
2022/10/01 09:53:45;;;;;;;5.93;0.70;;;17.90;99.90;;;;;;5082031;28;20557;-66
2022/10/01 09:56:20;;;;;;;7.38;0.60;;;18.30;99.90;;;;;;5064650;28;20039;-67
2022/10/01 09:58:52;;;;;;;6.82;0.57;;;18.40;99.90;;;;;;5081688;28;20051;-66
2022/10/01 10:01:52;;;;;;;6.85;0.80;;;18.40;99.90;;;;;;5081530;28;20051;-66
2022/10/01 10:04:20;;;;;;;5.95;0.70;;;17.90;99.90;;;;;;5031720;28;20522;-66
2022/10/01 10:06:46;;;;;;;7.97;0.50;;;18.30;99.90;;;;;;5081326;28;20062;-66
2022/10/01 10:09:17;;;;;;;8.27;0.80;;;18.80;99.90;;;;;;5064755;28;20100;-66
2022/10/01 10:11:44;;;;;;;4.88;0.60;;;18.90;99.90;;;;;;5081496;28;20078;-67
2022/10/01 10:14:27;;;;;;;7.13;0.50;;;18.80;99.90;;;;;;5064905;28;20040;-66
2022/10/01 10:16:54;;;;;;;3.85;0.50;;;18.30;99.90;;;;;;5064739;28;20043;-66
2022/10/01 10:19:26;;;;;;;5.43;0.43;;;17.40;99.90;;;;;;5064546;28;20079;-66
2022/10/01 10:22:11;;;;;;;5.88;0.40;;;16.80;99.90;;;;;;5081278;28;20048;-67
2022/10/01 10:24:37;;;;;;;3.17;0.50;;;16.10;99.90;;;;;;5081316;28;20044;-66
2022/10/01 10:27:06;;;;;;;3.35;0.30;;;15.80;99.90;;;;;;5063937;28;20197;-65
2022/10/01 10:29:34;;;;;;;4.75;0.60;;;15.40;99.90;;;;;;5080542;28;20043;-66
2022/10/01 10:32:18;;;;;;;3.03;0.30;;;15.30;99.90;;;;;;5081438;28;20051;-65
2022/10/01 10:34:47;;;;;;;3.20;0.30;;;15.10;99.90;;;;;;5080984;28;20055;-66
2022/10/01 10:37:22;;;;;;;3.30;0.43;;;15.30;99.90;;;;;;5063658;28;20056;-67
2022/10/01 10:39:50;;;;;;;3.10;0.30;;;15.80;99.90;;;;;;5064035;28;20040;-65
2022/10/01 10:42:18;;;;;;;3.38;0.30;;;15.90;99.90;;;;;;5064255;28;20044;-66
2022/10/01 10:44:48;;;;;;;2.40;0.20;;;15.50;99.90;;;;;;5081140;28;20048;-65
2022/10/01 10:47:15;;;;;;;5.07;0.50;;;15.60;99.90;;;;;;5080817;28;20043;-66
2022/10/01 10:49:54;;;;;;;6.43;0.57;;;15.60;99.90;;;;;;5063885;28;20430;-66
2022/10/01 10:52:23;;;;;;;3.63;0.70;;;15.30;99.90;;;;;;5063868;28;20055;-65
2022/10/01 10:54:55;;;;;;;4.53;0.32;;;15.40;99.90;;;;;;5063629;28;20123;-66
2022/10/01 10:57:29;;;;;;;6.10;0.50;;;15.20;99.90;;;;;;5063445;28;20035;-66
2022/10/01 11:00:00;;;;;;;6.32;0.40;;;14.90;99.90;;;;;;5080970;28;20105;-66
2022/10/01 11:02:29;;;;;;;5.10;0.50;;;14.80;99.90;;;;;;5080703;28;20468;-66
2022/10/01 11:04:57;;;;;;;3.03;0.30;;;15.00;99.90;;;;;;5080508;28;20127;-65
2022/10/01 11:07:24;;;;;;;2.40;0.28;;;14.80;99.90;;;;;;5079807;28;20374;-66
2022/10/01 11:10:38;;;;;;;2.90;0.20;;;14.50;99.90;;;;;;5077449;28;20073;-66
2022/10/01 11:13:37;;;;;;;2.90;0.20;;;14.40;99.90;;;;;;5023886;28;20791;-65
2022/10/01 11:16:07;;;;;;;2.03;0.20;;;14.30;99.90;;;;;;5077486;28;20134;-65
2022/10/01 11:18:46;;;;;;;5.40;0.25;;;13.90;99.90;;;;;;5078786;28;20539;-66
2022/10/01 11:21:33;;;;;;;3.63;0.40;;;14.20;99.90;;;;;;5078185;28;20397;-66
2022/10/01 11:24:01;;;;;;;4.35;0.38;;;13.90;99.90;;;;;;5077940;28;20036;-65
2022/10/01 11:26:33;;;;;;;4.22;0.30;;;14.10;99.90;;;;;;5094866;28;20040;-65
2022/10/01 11:29:26;;;;;;;4.35;0.30;;;14.00;99.90;;;;;;5079157;28;20077;-65
2022/10/01 11:32:01;;;;;;;3.97;0.32;;;13.70;99.90;;;;;;5062158;28;20046;-64
2022/10/01 11:34:49;;;;;;;4.70;0.30;;;13.90;99.90;;;;;;5077737;28;20044;-63
2022/10/01 11:37:33;;;;;;;5.85;0.40;;;13.70;99.90;;;;;;5077856;28;20066;-64
2022/10/01 11:40:11;;;;;;;3.33;0.40;;;13.70;99.90;;;;;;5077372;28;20093;-64
2022/10/01 11:42:40;;;;;;;4.97;0.50;;;14.20;99.90;;;;;;5060895;28;20397;-64
2022/10/01 11:45:15;;;;;;;5.32;0.40;;;15.20;99.90;;;;;;5077680;28;20452;-64
2022/10/01 11:47:48;;;;;;;3.88;0.50;;;15.70;99.90;;;;;;5078403;28;20056;-64
2022/10/01 11:50:18;;;;;;;4.30;0.40;;;15.90;99.90;;;;;;5077855;28;20393;-65
2022/10/01 11:53:17;;;;;;;3.13;0.40;;;16.60;99.90;;;;;;5077731;28;20043;-65
2022/10/01 11:58:51;;;;;;;3.10;0.30;;;17.40;99.90;;;;;;5081391;28;20062;-65
2022/10/01 12:01:23;;;;;;;3.08;0.25;;;18.00;99.90;;;;;;5083274;28;20040;-65
2022/10/01 12:03:52;;;;;;;3.33;0.30;;;17.80;99.90;;;;;;5083016;28;20050;-68
2022/10/01 12:07:02;;;;;;;2.33;0.30;;;18.30;99.90;;;;;;5084438;28;20362;-64
2022/10/01 12:10:11;;;;;;;3.33;0.30;;;18.70;99.90;;;;;;5050800;28;20052;-67
2022/10/01 12:12:47;;;;;;;4.60;0.40;;;18.70;99.90;;;;;;5083540;28;20036;-65
2022/10/01 12:15:21;;;;;;;4.45;0.50;;;18.90;99.90;;;;;;5083999;28;20155;-64
2022/10/01 12:18:08;;;;;;;4.53;0.40;;;18.60;99.90;;;;;;5085404;28;20055;-64
2022/10/01 12:20:43;;;;;;;7.78;0.50;;;19.00;99.90;;;;;;5085292;28;20050;-65
2022/10/01 12:23:14;;;;;;;8.00;0.65;;;19.30;99.90;;;;;;5085225;28;20369;-65
2022/10/01 12:26:18;;;;;;;7.07;0.63;;;18.90;99.90;;;;;;5086229;28;20081;-64
2022/10/01 12:28:54;;;;;;;6.40;0.43;;;18.10;99.90;;;;;;5082316;28;20055;-64
2022/10/01 12:31:59;;;;;;;8.30;0.77;;;17.60;99.90;;;;;;5085356;28;20040;-65
2022/10/01 12:34:32;;;;;;;6.05;0.40;;;17.20;99.90;;;;;;5068600;28;20043;-64
2022/10/01 12:37:03;;;;;;;8.30;0.73;;;17.40;99.90;;;;;;5066674;28;20500;-65
2022/10/01 12:39:42;;;;;;;8.02;0.80;;;17.80;99.90;;;;;;5085383;28;20044;-64
2022/10/01 12:42:48;;;;;;;8.45;0.93;;;17.50;99.90;;;;;;5084443;28;20093;-64
2022/10/01 12:45:45;;;;;;;7.05;0.77;;;17.60;99.90;;;;;;5045637;28;20443;-64
2022/10/01 12:48:20;;;;;;;8.68;0.60;;;18.10;99.90;;;;;;5078571;28;20689;-65
2022/10/01 12:50:45;;;;;;;7.57;0.70;;;17.90;99.90;;;;;;5045369;28;20051;-65
2022/10/01 12:53:36;;;;;;;11.60;0.90;;;18.50;99.90;;;;;;5079547;28;20047;-65
2022/10/01 12:56:27;;;;;;;7.85;0.73;;;18.90;99.90;;;;;;5049782;28;20134;-64
2022/10/01 12:59:16;;;;;;;6.38;1.23;;;19.70;99.90;;;;;;5082694;28;20439;-64
2022/10/01 13:01:57;;;;;;;8.50;0.77;;;19.70;99.90;;;;;;5055460;28;20126;-66
2022/10/01 13:04:55;;;;;;;7.45;0.98;;;18.90;99.90;;;;;;5082783;28;20162;-64
2022/10/01 13:07:55;;;;;;;8.45;0.90;;;18.30;99.90;;;;;;5082307;28;20056;-64
2022/10/01 13:10:56;;;;;;;7.20;0.70;;;18.60;99.90;;;;;;5082803;28;20482;-65
2022/10/01 13:13:33;;;;;;;6.30;0.60;;;19.00;99.90;;;;;;5065521;28;20072;-64